createdAt,value
2017-05-13T00:00:04.497Z,97.9
2017-05-13T00:00:17.125Z,97.9
2017-05-13T00:00:30.268Z,97.71
2017-05-13T00:00:43.535Z,97.9
2017-05-13T00:00:56.679Z,98.77
2017-05-13T00:01:09.306Z,98
2017-05-13T00:01:21.444Z,97.61
2017-05-13T00:01:34.122Z,98.57
2017-05-13T00:01:47.600Z,98.19
2017-05-13T00:02:00.741Z,98.38
2017-05-13T00:02:12.336Z,98.57
2017-05-13T00:02:25.474Z,98.48
2017-05-13T00:02:38.673Z,98.57
2017-05-13T00:02:51.368Z,98.19
2017-05-13T00:03:04.530Z,98.57
2017-05-13T00:03:17.689Z,98.57
2017-05-13T00:03:30.885Z,98.77
2017-05-13T00:03:44.120Z,98.57
2017-05-13T00:03:57.324Z,98.48
2017-05-13T00:04:09.969Z,98.86
2017-05-13T00:04:22.593Z,98.1
2017-05-13T00:04:35.184Z,98.05
2017-05-13T00:04:48.390Z,97.66
2017-05-13T00:05:02.352Z,98.05
2017-05-13T00:05:14.991Z,97.76
2017-05-13T00:05:28.170Z,97.76
2017-05-13T00:05:41.331Z,98.52
2017-05-13T00:05:54.466Z,98.52
2017-05-13T00:06:07.653Z,98.52
2017-05-13T00:06:20.331Z,98.14
2017-05-13T00:06:33.422Z,97.95
2017-05-13T00:06:46.598Z,97.95
2017-05-13T00:06:59.781Z,97.85
2017-05-13T00:07:11.925Z,98.05
2017-05-13T00:07:25.133Z,97.95
2017-05-13T00:07:38.320Z,98.05
2017-05-13T00:07:51.471Z,97.95
2017-05-13T00:08:04.126Z,97.95
2017-05-13T00:08:17.323Z,97.85
2017-05-13T00:08:30.506Z,97.95
2017-05-13T00:08:43.704Z,97.66
2017-05-13T00:08:56.400Z,97.66
2017-05-13T00:09:08.563Z,97.76
2017-05-13T00:09:21.772Z,97.76
2017-05-13T00:09:35.176Z,97.85
2017-05-13T00:09:48.296Z,97.47
2017-05-13T00:10:00.963Z,97.38
2017-05-13T00:10:14.115Z,97.38
2017-05-13T00:10:27.255Z,97.56
2017-05-13T00:10:40.504Z,97.66
2017-05-13T00:10:53.236Z,97.66
2017-05-13T00:11:06.385Z,97.56
2017-05-13T00:11:19.630Z,97.56
2017-05-13T00:11:32.795Z,97.56
2017-05-13T00:11:45.988Z,97.47
2017-05-13T00:11:59.205Z,97.76
2017-05-13T00:12:11.833Z,97.56
2017-05-13T00:12:24.519Z,97.38
2017-05-13T00:12:37.719Z,97.38
2017-05-13T00:12:50.816Z,97.09
2017-05-13T00:13:03.940Z,97.28
2017-05-13T00:13:16.696Z,96.89
2017-05-13T00:13:29.811Z,96.99
2017-05-13T00:13:42.967Z,96.99
2017-05-13T00:13:56.188Z,96.99
2017-05-13T00:14:09.344Z,96.89
2017-05-13T00:14:22.551Z,97.18
2017-05-13T00:14:35.655Z,97.28
2017-05-13T00:14:48.799Z,97.38
2017-05-13T00:15:01.963Z,97.28
2017-05-13T00:15:14.619Z,97.09
2017-05-13T00:15:27.300Z,97.18
2017-05-13T00:15:40.437Z,97.18
2017-05-13T00:15:53.619Z,97.18
2017-05-13T00:16:06.321Z,97.18
2017-05-13T00:16:19.522Z,97.09
2017-05-13T00:16:32.212Z,97.28
2017-05-13T00:16:45.569Z,97.28
2017-05-13T00:16:58.683Z,97.09
2017-05-13T00:17:11.768Z,97.18
2017-05-13T00:17:24.418Z,96.99
2017-05-13T00:17:37.590Z,96.85
2017-05-13T00:17:50.681Z,97.09
2017-05-13T00:18:03.822Z,97.04
2017-05-13T00:18:16.959Z,96.85
2017-05-13T00:18:29.600Z,97.04
2017-05-13T00:18:42.766Z,96.99
2017-05-13T00:18:55.467Z,97.14
2017-05-13T00:19:08.153Z,97.04
2017-05-13T00:19:20.758Z,97.18
2017-05-13T00:19:33.947Z,97.09
2017-05-13T00:19:47.098Z,97.18
2017-05-13T00:20:00.327Z,97.09
2017-05-13T00:20:13.058Z,97.09
2017-05-13T00:20:26.200Z,97.09
2017-05-13T00:20:39.311Z,97.38
2017-05-13T00:20:52.474Z,97.18
2017-05-13T00:21:05.159Z,96.99
2017-05-13T00:21:18.333Z,97.28
2017-05-13T00:21:31.463Z,97.18
2017-05-13T00:21:44.652Z,96.99
2017-05-13T00:21:57.836Z,96.89
2017-05-13T00:22:10.483Z,96.89
2017-05-13T00:22:23.094Z,97.09
2017-05-13T00:22:36.225Z,97.38
2017-05-13T00:22:49.394Z,96.99
2017-05-13T00:23:02.018Z,97.09
2017-05-13T00:23:15.216Z,97.38
2017-05-13T00:23:28.333Z,96.99
2017-05-13T00:23:41.483Z,97.38
2017-05-13T00:23:54.661Z,97.28
2017-05-13T00:24:07.268Z,96.99
2017-05-13T00:24:20.360Z,96.99
2017-05-13T00:24:33.529Z,97.18
2017-05-13T00:24:46.758Z,97.28
2017-05-13T00:24:59.901Z,97.33
2017-05-13T00:25:12.576Z,96.99
2017-05-13T00:25:25.706Z,97.23
2017-05-13T00:25:38.330Z,97.14
2017-05-13T00:25:51.478Z,97.18
2017-05-13T00:26:03.632Z,97.33
2017-05-13T00:26:16.817Z,97.04
2017-05-13T00:26:29.427Z,96.99
2017-05-13T00:26:42.620Z,96.94
2017-05-13T00:26:56.011Z,97.04
2017-05-13T00:27:08.186Z,96.66
2017-05-13T00:27:20.788Z,96.47
2017-05-13T00:27:33.489Z,96.47
2017-05-13T00:27:46.690Z,96.37
2017-05-13T00:27:59.844Z,96.18
2017-05-13T00:28:12.479Z,96.08
2017-05-13T00:28:25.640Z,96.27
2017-05-13T00:28:38.328Z,96.08
2017-05-13T00:28:51.479Z,96.18
2017-05-13T00:29:04.674Z,96.37
2017-05-13T00:29:16.838Z,96.08
2017-05-13T00:29:30.019Z,96.08
2017-05-13T00:29:42.722Z,95.98
2017-05-13T00:29:55.898Z,95.79
2017-05-13T00:30:09.004Z,95.98
2017-05-13T00:30:21.636Z,95.98
2017-05-13T00:30:34.812Z,95.7
2017-05-13T00:30:47.556Z,95.6
2017-05-13T00:31:00.712Z,95.6
2017-05-13T00:31:13.364Z,95.31
2017-05-13T00:31:26.547Z,95.31
2017-05-13T00:31:39.750Z,95.03
2017-05-13T00:31:53.124Z,95.51
2017-05-13T00:32:06.275Z,94.93
2017-05-13T00:32:18.440Z,94.93
2017-05-13T00:32:31.574Z,94.93
2017-05-13T00:32:44.804Z,94.93
2017-05-13T00:32:57.984Z,95.03
2017-05-13T00:33:10.644Z,94.93
2017-05-13T00:33:23.240Z,94.84
2017-05-13T00:33:36.440Z,94.45
2017-05-13T00:33:49.616Z,94.74
2017-05-13T00:34:02.212Z,94.64
2017-05-13T00:34:14.840Z,94.64
2017-05-13T00:34:27.507Z,94.55
2017-05-13T00:34:40.614Z,94.74
2017-05-13T00:34:53.802Z,94.07
2017-05-13T00:35:06.439Z,94.17
2017-05-13T00:35:19.582Z,94.55
2017-05-13T00:35:32.290Z,94.26
2017-05-13T00:35:45.479Z,94.74
2017-05-13T00:35:58.678Z,94.93
2017-05-13T00:36:11.380Z,94.84
2017-05-13T00:36:23.543Z,94.17
2017-05-13T00:36:36.243Z,94.64
2017-05-13T00:36:48.938Z,94.64
2017-05-13T00:37:02.240Z,94.45
2017-05-13T00:37:15.374Z,94.45
2017-05-13T00:37:28.000Z,94.84
2017-05-13T00:37:41.137Z,94.45
2017-05-13T00:37:54.285Z,94.26
2017-05-13T00:38:07.462Z,94.35
2017-05-13T00:38:20.176Z,94.45
2017-05-13T00:38:32.390Z,94.55
2017-05-13T00:38:45.530Z,94.45
2017-05-13T00:38:58.707Z,94.64
2017-05-13T00:39:11.338Z,94.45
2017-05-13T00:39:24.517Z,94.35
2017-05-13T00:39:37.719Z,94.55
2017-05-13T00:39:50.925Z,94.55
2017-05-13T00:40:04.123Z,94.64
2017-05-13T00:40:17.301Z,94.74
2017-05-13T00:40:30.471Z,94.07
2017-05-13T00:40:43.627Z,94.45
2017-05-13T00:40:56.758Z,94.55
2017-05-13T00:41:09.396Z,94.55
2017-05-13T00:41:21.507Z,94.55
2017-05-13T00:41:34.631Z,94.55
2017-05-13T00:41:47.767Z,94.55
2017-05-13T00:42:00.906Z,94.55
2017-05-13T00:42:14.128Z,94.5
2017-05-13T00:42:27.356Z,94.74
2017-05-13T00:42:40.509Z,94.55
2017-05-13T00:42:53.638Z,94.45
2017-05-13T00:43:06.876Z,94.45
2017-05-13T00:43:20.055Z,94.26
2017-05-13T00:43:33.235Z,94.17
2017-05-13T00:43:45.868Z,94.26
2017-05-13T00:43:59.065Z,94.17
2017-05-13T00:44:11.248Z,94.07
2017-05-13T00:44:23.954Z,94.26
2017-05-13T00:44:37.144Z,93.88
2017-05-13T00:44:50.256Z,93.88
2017-05-13T00:45:03.346Z,93.98
2017-05-13T00:45:16.060Z,93.78
2017-05-13T00:45:29.161Z,93.78
2017-05-13T00:45:42.302Z,93.98
2017-05-13T00:45:54.975Z,93.3
2017-05-13T00:46:08.118Z,93.49
2017-05-13T00:46:20.747Z,93.54
2017-05-13T00:46:33.405Z,93.88
2017-05-13T00:46:46.582Z,93.64
2017-05-13T00:46:59.966Z,93.74
2017-05-13T00:47:12.628Z,93.11
2017-05-13T00:47:24.261Z,92.87
2017-05-13T00:47:37.417Z,93.07
2017-05-13T00:47:50.577Z,93.16
2017-05-13T00:48:03.772Z,92.97
2017-05-13T00:48:16.454Z,93.3
2017-05-13T00:48:29.567Z,92.58
2017-05-13T00:48:42.794Z,92.58
2017-05-13T00:48:55.381Z,92.4
2017-05-13T00:49:08.109Z,92.3
2017-05-13T00:49:21.297Z,92.92
2017-05-13T00:49:34.477Z,92.3
2017-05-13T00:49:47.611Z,92.35
2017-05-13T00:50:00.791Z,92.58
2017-05-13T00:50:13.943Z,92.73
2017-05-13T00:50:27.107Z,92.58
2017-05-13T00:50:40.243Z,92.49
2017-05-13T00:50:52.848Z,92.21
2017-05-13T00:51:05.962Z,92.54
2017-05-13T00:51:19.208Z,92.54
2017-05-13T00:51:32.343Z,92.54
2017-05-13T00:51:45.497Z,92.54
2017-05-13T00:51:58.148Z,92.54
2017-05-13T00:52:10.830Z,92.49
2017-05-13T00:52:23.478Z,92.25
2017-05-13T00:52:36.658Z,92.44
2017-05-13T00:52:49.336Z,92.54
2017-05-13T00:53:02.467Z,92.15
2017-05-13T00:53:15.158Z,92.15
2017-05-13T00:53:28.286Z,92.73
2017-05-13T00:53:41.477Z,92.54
2017-05-13T00:53:54.626Z,92.54
2017-05-13T00:54:07.756Z,92.63
2017-05-13T00:54:20.501Z,92.54
2017-05-13T00:54:33.625Z,92.54
2017-05-13T00:54:46.234Z,92.54
2017-05-13T00:54:59.405Z,92.44
2017-05-13T00:55:12.575Z,92.44
2017-05-13T00:55:25.246Z,92.44
2017-05-13T00:55:37.350Z,92.63
2017-05-13T00:55:50.518Z,92.82
2017-05-13T00:56:03.640Z,92.63
2017-05-13T00:56:16.283Z,92.82
2017-05-13T00:56:28.961Z,93.02
2017-05-13T00:56:41.637Z,93.11
2017-05-13T00:56:54.294Z,93.69
2017-05-13T00:57:07.469Z,93.3
2017-05-13T00:57:20.148Z,93.4
2017-05-13T00:57:32.773Z,93.49
2017-05-13T00:57:45.429Z,93.49
2017-05-13T00:57:58.622Z,93.63
2017-05-13T00:58:11.316Z,93.49
2017-05-13T00:58:24.441Z,93.59
2017-05-13T00:58:37.639Z,93.4
2017-05-13T00:58:50.289Z,93.4
2017-05-13T00:59:02.989Z,93.49
2017-05-13T00:59:16.130Z,93.4
2017-05-13T00:59:28.254Z,93.4
2017-05-13T00:59:41.447Z,93.49
2017-05-13T00:59:54.629Z,93.49
2017-05-13T01:00:07.815Z,93.69
2017-05-13T01:00:19.988Z,93.69
2017-05-13T01:00:33.161Z,93.49
2017-05-13T01:00:45.348Z,93.49
2017-05-13T01:00:58.505Z,93.49
2017-05-13T01:01:11.131Z,93.49
2017-05-13T01:01:24.329Z,93.4
2017-05-13T01:01:37.460Z,93.59
2017-05-13T01:01:50.133Z,93.4
2017-05-13T01:02:03.009Z,93.4
2017-05-13T01:02:15.715Z,93.49
2017-05-13T01:02:28.419Z,93.69
2017-05-13T01:02:41.574Z,93.4
2017-05-13T01:02:54.296Z,93.49
2017-05-13T01:03:07.478Z,93.69
2017-05-13T01:03:20.664Z,93.49
2017-05-13T01:03:33.832Z,93.78
2017-05-13T01:03:46.510Z,93.59
2017-05-13T01:03:59.742Z,93.49
2017-05-13T01:04:12.877Z,93.59
2017-05-13T01:04:25.491Z,93.78
2017-05-13T01:04:38.162Z,93.78
2017-05-13T01:04:51.358Z,93.88
2017-05-13T01:05:04.570Z,93.78
2017-05-13T01:05:16.697Z,93.64
2017-05-13T01:05:29.913Z,93.88
2017-05-13T01:05:43.052Z,92.78
2017-05-13T01:05:55.663Z,93.02
2017-05-13T01:06:08.841Z,93.21
2017-05-13T01:06:21.504Z,92.87
2017-05-13T01:06:34.597Z,92.92
2017-05-13T01:06:47.780Z,92.58
2017-05-13T01:07:00.962Z,92.92
2017-05-13T01:07:14.117Z,92.35
2017-05-13T01:07:27.288Z,92.92
2017-05-13T01:07:40.446Z,92.35
2017-05-13T01:07:53.597Z,92.35
2017-05-13T01:08:06.827Z,92.25
2017-05-13T01:08:19.477Z,92.73
2017-05-13T01:08:32.609Z,92.58
2017-05-13T01:08:45.727Z,92.35
2017-05-13T01:08:58.925Z,92.63
2017-05-13T01:09:11.638Z,92.35
2017-05-13T01:09:24.347Z,92.44
2017-05-13T01:09:37.531Z,92.44
2017-05-13T01:09:50.199Z,92.25
2017-05-13T01:10:03.340Z,92.25
2017-05-13T01:10:16.493Z,92.25
2017-05-13T01:10:29.695Z,92.4
2017-05-13T01:10:42.391Z,92.4
2017-05-13T01:10:55.519Z,92.35
2017-05-13T01:11:08.667Z,92.4
2017-05-13T01:11:21.346Z,92.44
2017-05-13T01:11:34.526Z,92.49
2017-05-13T01:11:47.689Z,92.3
2017-05-13T01:12:00.910Z,92.49
2017-05-13T01:12:14.088Z,92.3
2017-05-13T01:12:27.293Z,92.49
2017-05-13T01:12:40.467Z,92.4
2017-05-13T01:12:53.186Z,92.4
2017-05-13T01:13:06.377Z,92.49
2017-05-13T01:13:19.547Z,92.3
2017-05-13T01:13:32.679Z,92.49
2017-05-13T01:13:45.885Z,92.3
2017-05-13T01:13:58.561Z,92.49
2017-05-13T01:14:11.697Z,92.49
2017-05-13T01:14:24.661Z,92.11
2017-05-13T01:14:37.827Z,92.21
2017-05-13T01:14:50.946Z,92.58
2017-05-13T01:15:04.097Z,92.49
2017-05-13T01:15:16.773Z,92.4
2017-05-13T01:15:29.960Z,92.58
2017-05-13T01:15:43.100Z,92.4
2017-05-13T01:15:55.242Z,92.49
2017-05-13T01:16:08.430Z,92.4
2017-05-13T01:16:21.095Z,92.4
2017-05-13T01:16:34.288Z,92.01
2017-05-13T01:16:47.507Z,92.21
2017-05-13T01:17:00.657Z,92.21
2017-05-13T01:17:13.455Z,92.11
2017-05-13T01:17:26.120Z,91.92
2017-05-13T01:17:38.793Z,91.92
2017-05-13T01:17:51.506Z,92.11
2017-05-13T01:18:04.719Z,91.92
2017-05-13T01:18:16.897Z,91.92
2017-05-13T01:18:29.033Z,92.01
2017-05-13T01:18:41.652Z,91.92
2017-05-13T01:18:54.304Z,91.92
2017-05-13T01:19:07.446Z,91.92
2017-05-13T01:19:20.098Z,92.11
2017-05-13T01:19:32.770Z,92.01
2017-05-13T01:19:45.953Z,91.92
2017-05-13T01:19:59.151Z,91.82
2017-05-13T01:20:11.828Z,92.01
2017-05-13T01:20:24.506Z,91.92
2017-05-13T01:20:37.184Z,91.82
2017-05-13T01:20:50.306Z,91.82
2017-05-13T01:21:03.474Z,91.92
2017-05-13T01:21:16.618Z,92.11
2017-05-13T01:21:29.781Z,91.63
2017-05-13T01:21:41.977Z,91.63
2017-05-13T01:21:55.121Z,91.72
2017-05-13T01:22:07.803Z,91.53
2017-05-13T01:22:20.930Z,91.82
2017-05-13T01:22:34.050Z,91.72
2017-05-13T01:22:47.308Z,92.01
2017-05-13T01:23:00.474Z,91.92
2017-05-13T01:23:13.135Z,91.92
2017-05-13T01:23:26.333Z,91.53
2017-05-13T01:23:39.016Z,91.72
2017-05-13T01:23:52.185Z,91.44
2017-05-13T01:24:05.429Z,91.25
2017-05-13T01:24:18.605Z,91.25
2017-05-13T01:24:31.844Z,91.34
2017-05-13T01:24:45.044Z,91.34
2017-05-13T01:24:58.210Z,90.96
2017-05-13T01:25:10.884Z,91.25
2017-05-13T01:25:23.600Z,91.44
2017-05-13T01:25:36.784Z,91.44
2017-05-13T01:25:49.485Z,91.53
2017-05-13T01:26:02.135Z,91.53
2017-05-13T01:26:15.233Z,91.25
2017-05-13T01:26:28.411Z,91.05
2017-05-13T01:26:41.636Z,91.34
2017-05-13T01:26:54.320Z,91.05
2017-05-13T01:27:07.101Z,91.53
2017-05-13T01:27:20.263Z,90.96
2017-05-13T01:27:33.423Z,91.05
2017-05-13T01:27:46.610Z,91.15
2017-05-13T01:27:59.258Z,91.15
2017-05-13T01:28:12.397Z,91.34
2017-05-13T01:28:25.032Z,91.53
2017-05-13T01:28:38.192Z,91.15
2017-05-13T01:28:51.371Z,91.15
2017-05-13T01:29:04.543Z,91.25
2017-05-13T01:29:18.372Z,91.15
2017-05-13T01:29:31.533Z,91.63
2017-05-13T01:29:44.635Z,91.34
2017-05-13T01:29:57.356Z,91.34
2017-05-13T01:30:10.042Z,91.44
2017-05-13T01:30:22.225Z,91.44
2017-05-13T01:30:35.856Z,91.34
2017-05-13T01:30:49.890Z,91.34
2017-05-13T01:31:02.991Z,91.72
2017-05-13T01:31:16.117Z,91.05
2017-05-13T01:31:29.256Z,91.34
2017-05-13T01:31:42.452Z,91.25
2017-05-13T01:31:55.161Z,91.25
2017-05-13T01:32:08.326Z,91.25
2017-05-13T01:32:21.349Z,91.34
2017-05-13T01:32:34.501Z,91.15
2017-05-13T01:32:47.656Z,91.34
2017-05-13T01:33:00.945Z,91.34
2017-05-13T01:33:14.151Z,91.05
2017-05-13T01:33:26.743Z,91.72
2017-05-13T01:33:39.928Z,91.44
2017-05-13T01:33:53.145Z,91.15
2017-05-13T01:34:06.454Z,91.15
2017-05-13T01:34:19.097Z,91.34
2017-05-13T01:34:31.869Z,91.34
2017-05-13T01:34:45.086Z,91.34
2017-05-13T01:34:58.236Z,91.53
2017-05-13T01:35:11.386Z,91.15
2017-05-13T01:35:24.551Z,91.25
2017-05-13T01:35:37.734Z,91.25
2017-05-13T01:35:50.880Z,91.34
2017-05-13T01:36:04.029Z,91.25
2017-05-13T01:36:16.721Z,91.15
2017-05-13T01:36:29.420Z,91.25
2017-05-13T01:36:42.588Z,90.96
2017-05-13T01:36:55.702Z,91.05
2017-05-13T01:37:08.366Z,90.96
2017-05-13T01:37:21.580Z,91.2
2017-05-13T01:37:34.778Z,91.11
2017-05-13T01:37:47.401Z,91.2
2017-05-13T01:38:00.607Z,91.11
2017-05-13T01:38:13.209Z,91.34
2017-05-13T01:38:26.320Z,91.2
2017-05-13T01:38:39.455Z,91.39
2017-05-13T01:38:52.629Z,91.58
2017-05-13T01:39:05.311Z,91.58
2017-05-13T01:39:17.456Z,91.3
2017-05-13T01:39:30.659Z,91.3
2017-05-13T01:39:43.877Z,91.39
2017-05-13T01:39:57.032Z,91.39
2017-05-13T01:40:10.185Z,91.3
2017-05-13T01:40:22.371Z,91.68
2017-05-13T01:40:35.555Z,91.2
2017-05-13T01:40:48.208Z,91.2
2017-05-13T01:41:01.354Z,91.2
2017-05-13T01:41:14.532Z,91.2
2017-05-13T01:41:27.199Z,91.2
2017-05-13T01:41:40.379Z,91.01
2017-05-13T01:41:53.045Z,91.01
2017-05-13T01:42:06.204Z,91.2
2017-05-13T01:42:18.358Z,91.58
2017-05-13T01:42:31.497Z,91.11
2017-05-13T01:42:44.618Z,90.91
2017-05-13T01:42:57.853Z,90.82
2017-05-13T01:43:11.019Z,91.2
2017-05-13T01:43:24.095Z,90.44
2017-05-13T01:43:37.291Z,90.53
2017-05-13T01:43:50.387Z,90.53
2017-05-13T01:44:03.608Z,90.72
2017-05-13T01:44:16.219Z,90.63
2017-05-13T01:44:28.396Z,91.01
2017-05-13T01:44:41.622Z,90.44
2017-05-13T01:44:54.287Z,90.63
2017-05-13T01:45:07.457Z,90.63
2017-05-13T01:45:19.184Z,90.34
2017-05-13T01:45:32.323Z,90.24
2017-05-13T01:45:44.948Z,90.24
2017-05-13T01:45:58.131Z,90.44
2017-05-13T01:46:10.780Z,90.15
2017-05-13T01:46:24.016Z,90.15
2017-05-13T01:46:37.256Z,90.44
2017-05-13T01:46:50.426Z,90.44
2017-05-13T01:47:03.621Z,90.34
2017-05-13T01:47:15.782Z,90.53
2017-05-13T01:47:29.128Z,90.24
2017-05-13T01:47:41.775Z,89.86
2017-05-13T01:47:54.953Z,89.86
2017-05-13T01:48:08.161Z,89.86
2017-05-13T01:48:21.344Z,90.05
2017-05-13T01:48:34.497Z,89.95
2017-05-13T01:48:47.675Z,89.76
2017-05-13T01:49:00.305Z,89.81
2017-05-13T01:49:13.431Z,89.95
2017-05-13T01:49:26.644Z,89.86
2017-05-13T01:49:39.286Z,90
2017-05-13T01:49:51.923Z,89.95
2017-05-13T01:50:05.006Z,89.76
2017-05-13T01:50:17.616Z,89.95
2017-05-13T01:50:30.783Z,90
2017-05-13T01:50:43.966Z,90.19
2017-05-13T01:50:56.572Z,89.86
2017-05-13T01:51:09.744Z,89.9
2017-05-13T01:51:22.436Z,90
2017-05-13T01:51:35.652Z,89.81
2017-05-13T01:51:47.795Z,90
2017-05-13T01:52:01.017Z,90.05
2017-05-13T01:52:13.210Z,89.86
2017-05-13T01:52:26.378Z,90.19
2017-05-13T01:52:39.038Z,90.15
2017-05-13T01:52:52.246Z,90.67
2017-05-13T01:53:05.394Z,90.39
2017-05-13T01:53:18.074Z,90.39
2017-05-13T01:53:30.777Z,90.24
2017-05-13T01:53:43.938Z,90.24
2017-05-13T01:53:57.112Z,90.34
2017-05-13T01:54:09.302Z,90.63
2017-05-13T01:54:21.991Z,90.34
2017-05-13T01:54:34.676Z,89.86
2017-05-13T01:54:47.835Z,89.86
2017-05-13T01:55:00.539Z,89.86
2017-05-13T01:55:13.216Z,89.95
2017-05-13T01:55:26.422Z,89.95
2017-05-13T01:55:39.642Z,89.95
2017-05-13T01:55:52.819Z,89.86
2017-05-13T01:56:06.038Z,90.15
2017-05-13T01:56:19.167Z,90.34
2017-05-13T01:56:31.942Z,90.53
2017-05-13T01:56:45.049Z,90.34
2017-05-13T01:56:58.253Z,90.53
2017-05-13T01:57:11.491Z,90.44
2017-05-13T01:57:24.669Z,90.34
2017-05-13T01:57:37.352Z,90.44
2017-05-13T01:57:50.514Z,90.53
2017-05-13T01:58:03.659Z,90.63
2017-05-13T01:58:16.918Z,90.34
2017-05-13T01:58:30.095Z,90.53
2017-05-13T01:58:43.688Z,90.34
2017-05-13T01:58:56.851Z,90.34
2017-05-13T01:59:10.038Z,90.53
2017-05-13T01:59:23.283Z,90.53
2017-05-13T01:59:36.007Z,90.63
2017-05-13T01:59:49.251Z,89.76
2017-05-13T02:00:02.460Z,89.95
2017-05-13T02:00:15.648Z,89.76
2017-05-13T02:00:28.312Z,90.05
2017-05-13T02:00:41.517Z,89.86
2017-05-13T02:00:55.397Z,89.86
2017-05-13T02:01:08.667Z,89.67
2017-05-13T02:01:21.870Z,89.67
2017-05-13T02:01:34.526Z,89.48
2017-05-13T02:01:47.662Z,89.38
2017-05-13T02:01:59.831Z,89.48
2017-05-13T02:02:12.567Z,89.58
2017-05-13T02:02:25.715Z,89.67
2017-05-13T02:02:39.059Z,89.48
2017-05-13T02:02:52.236Z,89.38
2017-05-13T02:03:05.375Z,89.67
2017-05-13T02:03:18.035Z,89.58
2017-05-13T02:03:31.268Z,89.29
2017-05-13T02:03:44.480Z,89.29
2017-05-13T02:03:57.671Z,89.58
2017-05-13T02:04:10.334Z,89.58
2017-05-13T02:04:22.554Z,89.48
2017-05-13T02:04:35.683Z,89.29
2017-05-13T02:04:48.326Z,89.29
2017-05-13T02:05:01.527Z,89.48
2017-05-13T02:05:14.213Z,89.29
2017-05-13T02:05:27.425Z,89.48
2017-05-13T02:05:40.550Z,89.48
2017-05-13T02:05:53.722Z,89.67
2017-05-13T02:06:07.008Z,89.72
2017-05-13T02:06:19.678Z,89.72
2017-05-13T02:06:32.312Z,89.19
2017-05-13T02:06:45.415Z,89.72
2017-05-13T02:06:58.537Z,89.72
2017-05-13T02:07:11.179Z,89.48
2017-05-13T02:07:24.402Z,89.67
2017-05-13T02:07:37.531Z,89.62
2017-05-13T02:07:50.677Z,89.43
2017-05-13T02:08:03.305Z,90.19
2017-05-13T02:08:16.413Z,90
2017-05-13T02:08:29.546Z,89.9
2017-05-13T02:08:42.760Z,90
2017-05-13T02:08:55.906Z,90.09
2017-05-13T02:09:09.079Z,89.81
2017-05-13T02:09:22.210Z,90.67
2017-05-13T02:09:34.882Z,90.67
2017-05-13T02:09:48.037Z,90.48
2017-05-13T02:10:01.207Z,90.19
2017-05-13T02:10:14.370Z,90.19
2017-05-13T02:10:27.532Z,90.29
2017-05-13T02:10:40.638Z,90.48
2017-05-13T02:10:53.773Z,90.29
2017-05-13T02:11:06.904Z,90.15
2017-05-13T02:11:20.052Z,90.29
2017-05-13T02:11:33.244Z,90.24
2017-05-13T02:11:45.883Z,90.29
2017-05-13T02:11:59.067Z,89.95
2017-05-13T02:12:12.276Z,90.48
2017-05-13T02:12:24.446Z,90.34
2017-05-13T02:12:37.607Z,90.34
2017-05-13T02:12:50.747Z,90.34
2017-05-13T02:13:02.981Z,90.15
2017-05-13T02:13:16.203Z,90.15
2017-05-13T02:13:29.418Z,90.53
2017-05-13T02:13:42.627Z,90.44
2017-05-13T02:13:55.321Z,90.34
2017-05-13T02:14:08.536Z,90.44
2017-05-13T02:14:21.182Z,90.63
2017-05-13T02:14:34.364Z,90.63
2017-05-13T02:14:47.504Z,90.53
2017-05-13T02:15:00.649Z,90.63
2017-05-13T02:15:13.756Z,90.63
2017-05-13T02:15:26.636Z,90.44
2017-05-13T02:15:38.797Z,90.24
2017-05-13T02:15:51.505Z,89.86
2017-05-13T02:16:04.644Z,89.76
2017-05-13T02:16:17.299Z,89.95
2017-05-13T02:16:30.473Z,89.86
2017-05-13T02:16:43.643Z,90.05
2017-05-13T02:16:56.791Z,90.15
2017-05-13T02:17:09.919Z,89.95
2017-05-13T02:17:23.034Z,89.86
2017-05-13T02:17:36.495Z,89.95
2017-05-13T02:17:49.699Z,89.95
2017-05-13T02:18:02.375Z,89.86
2017-05-13T02:18:15.009Z,90.05
2017-05-13T02:18:28.202Z,89.86
2017-05-13T02:18:41.393Z,89.86
2017-05-13T02:18:54.545Z,89.76
2017-05-13T02:19:07.222Z,89.58
2017-05-13T02:19:20.376Z,89.48
2017-05-13T02:19:33.615Z,89.58
2017-05-13T02:19:46.774Z,89.58
2017-05-13T02:20:00.037Z,89.48
2017-05-13T02:20:12.744Z,89.67
2017-05-13T02:20:25.501Z,89.48
2017-05-13T02:20:38.803Z,89.38
2017-05-13T02:20:51.953Z,89.38
2017-05-13T02:21:05.112Z,89.09
2017-05-13T02:21:18.262Z,89.48
2017-05-13T02:21:31.402Z,89.58
2017-05-13T02:21:44.601Z,89.29
2017-05-13T02:21:57.809Z,89.38
2017-05-13T02:22:09.921Z,89.48
2017-05-13T02:22:23.105Z,89.38
2017-05-13T02:22:34.733Z,89.29
2017-05-13T02:22:47.379Z,89.67
2017-05-13T02:23:00.562Z,89.76
2017-05-13T02:23:13.751Z,89.58
2017-05-13T02:23:26.934Z,89.58
2017-05-13T02:23:40.072Z,89.58
2017-05-13T02:23:53.299Z,90.15
2017-05-13T02:24:05.997Z,90.05
2017-05-13T02:24:18.181Z,90.15
2017-05-13T02:24:31.393Z,90.05
2017-05-13T02:24:44.567Z,89.95
2017-05-13T02:24:57.734Z,89.76
2017-05-13T02:25:10.947Z,89.95
2017-05-13T02:25:24.128Z,89.76
2017-05-13T02:25:36.260Z,90.05
2017-05-13T02:25:48.963Z,89.86
2017-05-13T02:26:02.217Z,90.05
2017-05-13T02:26:14.843Z,90.05
2017-05-13T02:26:27.512Z,89.95
2017-05-13T02:26:40.681Z,89.86
2017-05-13T02:26:53.390Z,89.95
2017-05-13T02:27:06.602Z,90.53
2017-05-13T02:27:18.720Z,90.44
2017-05-13T02:27:31.448Z,90.53
2017-05-13T02:27:44.631Z,90.53
2017-05-13T02:27:57.827Z,90.44
2017-05-13T02:28:10.491Z,90.53
2017-05-13T02:28:23.966Z,90.24
2017-05-13T02:28:37.428Z,90.63
2017-05-13T02:28:50.568Z,90.63
2017-05-13T02:29:03.179Z,90.24
2017-05-13T02:29:17.053Z,90.44
2017-05-13T02:29:30.159Z,90.63
2017-05-13T02:29:43.372Z,90.63
2017-05-13T02:29:56.583Z,90.24
2017-05-13T02:30:08.745Z,90.24
2017-05-13T02:30:21.399Z,90.24
2017-05-13T02:30:34.599Z,90.63
2017-05-13T02:30:47.296Z,90.44
2017-05-13T02:31:00.458Z,90.24
2017-05-13T02:31:13.673Z,90.44
2017-05-13T02:31:26.385Z,90.63
2017-05-13T02:31:39.768Z,90.44
2017-05-13T02:31:52.438Z,89.86
2017-05-13T02:32:05.610Z,89.86
2017-05-13T02:32:18.323Z,90.05
2017-05-13T02:32:31.443Z,90.15
2017-05-13T02:32:44.833Z,89.95
2017-05-13T02:32:58.008Z,89.86
2017-05-13T02:33:10.187Z,89.95
2017-05-13T02:33:23.391Z,89.76
2017-05-13T02:33:36.092Z,89.86
2017-05-13T02:33:49.326Z,89.86
2017-05-13T02:34:02.002Z,89.86
2017-05-13T02:34:14.656Z,89.95
2017-05-13T02:34:27.813Z,90.05
2017-05-13T02:34:40.447Z,89.86
2017-05-13T02:34:53.089Z,89.95
2017-05-13T02:35:05.733Z,89.95
2017-05-13T02:35:18.364Z,89.76
2017-05-13T02:35:31.033Z,89.86
2017-05-13T02:35:44.204Z,89.86
2017-05-13T02:35:57.340Z,89.86
2017-05-13T02:36:10.027Z,90.05
2017-05-13T02:36:22.662Z,89.91
2017-05-13T02:36:35.751Z,89.86
2017-05-13T02:36:48.422Z,89.76
2017-05-13T02:37:01.549Z,90.01
2017-05-13T02:37:14.697Z,89.86
2017-05-13T02:37:27.399Z,89.53
2017-05-13T02:37:40.602Z,89.58
2017-05-13T02:37:53.558Z,89.76
2017-05-13T02:38:05.732Z,89.76
2017-05-13T02:38:17.868Z,89.67
2017-05-13T02:38:31.006Z,89.48
2017-05-13T02:38:44.131Z,89.67
2017-05-13T02:38:57.286Z,89.38
2017-05-13T02:39:10.481Z,89.67
2017-05-13T02:39:24.943Z,89.48
2017-05-13T02:39:38.137Z,89.58
2017-05-13T02:39:51.346Z,89.38
2017-05-13T02:40:04.439Z,89.48
2017-05-13T02:40:17.607Z,89.48
2017-05-13T02:40:30.840Z,89.38
2017-05-13T02:40:44.089Z,89.29
2017-05-13T02:40:57.336Z,89.58
2017-05-13T02:41:11.238Z,89.48
2017-05-13T02:41:23.948Z,89.38
2017-05-13T02:41:37.117Z,89.29
2017-05-13T02:41:50.348Z,89.58
2017-05-13T02:42:03.029Z,89.38
2017-05-13T02:42:15.685Z,89.58
2017-05-13T02:42:28.398Z,89.38
2017-05-13T02:42:41.587Z,89.29
2017-05-13T02:42:54.747Z,89.29
2017-05-13T02:43:09.256Z,89.67
2017-05-13T02:43:21.397Z,89.09
2017-05-13T02:43:34.621Z,89.58
2017-05-13T02:43:47.691Z,89.29
2017-05-13T02:44:00.845Z,89.38
2017-05-13T02:44:14.007Z,89.38
2017-05-13T02:44:27.178Z,89.58
2017-05-13T02:44:40.393Z,89.29
2017-05-13T02:44:53.547Z,89.29
2017-05-13T02:45:06.770Z,89.38
2017-05-13T02:45:19.953Z,89.48
2017-05-13T02:45:33.122Z,89.48
2017-05-13T02:45:46.203Z,89.48
2017-05-13T02:45:59.355Z,89.38
2017-05-13T02:46:12.525Z,89.48
2017-05-13T02:46:25.207Z,89.58
2017-05-13T02:46:37.859Z,89.38
2017-05-13T02:46:50.511Z,89.29
2017-05-13T02:47:03.703Z,89.48
2017-05-13T02:47:16.912Z,89.38
2017-05-13T02:47:30.049Z,89.48
2017-05-13T02:47:43.312Z,89.29